Time;durP1;ratioP1;P1;durP2;ratioP2;P2;SDS_P1;SDS_P2;PMS_P1;PMS_P2;Temp;Humidity;BMP_temperature;BMP_pressure;BME280_temperature;BME280_humidity;BME280_pressure;Samples;Min_cycle;Max_cycle;Signal;HPM_P1;HPM_P2
2024/01/08 00:01:50;;;;;;;;;25.75;22.25;;;;;1.93;58.54;101863.59;4984054;28;45412;-82
2024/01/08 00:04:15;;;;;;;;;25.50;18.50;;;;;1.81;57.46;101869.72;4995652;28;45271;-81
2024/01/08 00:06:40;;;;;;;;;28.00;24.75;;;;;1.80;57.87;101880.22;4996258;27;45385;-81
2024/01/08 00:09:06;;;;;;;;;24.00;21.25;;;;;1.75;57.96;101867.97;4983262;28;45168;-82
2024/01/08 00:11:31;;;;;;;;;21.75;20.00;;;;;1.62;58.08;101860.09;4993756;28;45383;-80
2024/01/08 00:13:56;;;;;;;;;25.50;20.50;;;;;1.67;57.56;101869.72;4976674;28;45595;-83
2024/01/08 00:16:22;;;;;;;;;28.00;27.50;;;;;1.52;58.26;101861.84;4974823;28;47395;-81
2024/01/08 00:18:47;;;;;;;;;20.75;17.00;;;;;1.58;58.36;101874.97;4976455;28;50017;-82
2024/01/08 00:21:13;;;;;;;;;28.75;23.00;;;;;1.65;58.31;101878.47;4976507;28;45395;-83
2024/01/08 00:23:38;;;;;;;;;28.25;21.75;;;;;1.53;57.88;101860.09;4984899;28;45432;-82
2024/01/08 00:26:03;;;;;;;;;23.00;19.00;;;;;1.45;58.17;101855.72;4995962;27;46174;-81
2024/01/08 00:28:29;;;;;;;;;24.75;22.25;;;;;1.58;58.34;101874.97;4995857;27;45244;-81
2024/01/08 00:30:54;;;;;;;;;22.50;20.50;;;;;1.47;58.22;101866.22;4981138;28;45240;-81
2024/01/08 00:33:20;;;;;;;;;22.25;20.00;;;;;1.68;58.47;101884.56;4976731;28;45608;-82
2024/01/08 00:35:45;;;;;;;;;23.25;20.25;;;;;1.64;56.94;101874.97;4989570;28;45438;-80
2024/01/08 00:38:10;;;;;;;;;28.50;19.00;;;;;1.58;58.07;101874.97;4995709;28;45412;-81
2024/01/08 00:40:36;;;;;;;;;26.75;24.00;;;;;1.47;57.78;101860.97;4983948;27;45747;-82
2024/01/08 00:43:01;;;;;;;;;26.00;22.75;;;;;1.41;57.93;101859.19;4976586;28;45699;-79
2024/01/08 00:45:27;;;;;;;;;23.00;18.50;;;;;1.43;58.19;101885.41;4985329;28;46483;-81
2024/01/08 00:47:52;;;;;;;;;28.50;17.75;;;;;1.39;58.38;101878.41;4995896;28;45397;-82
2024/01/08 00:50:18;;;;;;;;;30.25;25.50;;;;;1.38;58.68;101869.69;4986447;28;45467;-80
2024/01/08 00:52:43;;;;;;;;;20.00;19.00;;;;;1.48;58.65;101889.81;4976611;28;45335;-81
2024/01/08 00:55:11;;;;;;;;;32.00;26.25;;;;;1.44;58.76;101871.47;4978589;28;62701;-81
2024/01/08 00:57:37;;;;;;;;;26.25;22.50;;;;;1.56;58.66;101876.69;4974254;28;45950;-79
2024/01/08 01:00:04;;;;;;;;;24.25;20.75;;;;;1.60;56.67;101890.69;4978037;28;45259;-81
2024/01/08 01:02:29;;;;;;;;;18.75;18.25;;;;;1.50;57.19;101870.56;4996063;27;45279;-83
2024/01/08 01:04:54;;;;;;;;;25.50;23.50;;;;;1.44;56.73;101876.69;4994157;28;46124;-81
2024/01/08 01:07:20;;;;;;;;;33.50;23.00;;;;;1.36;56.97;101873.19;4995442;28;53056;-82
2024/01/08 01:09:45;;;;;;;;;26.50;26.00;;;;;1.40;57.27;101874.91;4990142;27;50966;-80
2024/01/08 01:12:11;;;;;;;;;29.00;26.75;;;;;1.34;57.32;101859.19;4976151;27;45327;-80
2024/01/08 01:14:36;;;;;;;;;24.50;22.25;;;;;1.26;56.49;101840.81;4976712;28;45754;-81
2024/01/08 01:17:01;;;;;;;;;26.00;23.25;;;;;1.41;56.68;101874.91;4994963;28;45336;-81
2024/01/08 01:19:27;;;;;;;;;23.50;23.50;;;;;1.35;56.15;101876.66;4998015;28;45233;-80
2024/01/08 01:21:53;;;;;;;;;36.25;25.50;;;;;1.23;56.49;101858.28;4985794;28;45306;-80
2024/01/08 01:24:18;;;;;;;;;24.25;19.50;;;;;1.23;55.93;101880.13;4977103;28;45438;-80
2024/01/08 01:26:44;;;;;;;;;22.00;18.50;;;;;1.16;56.70;101866.13;4994029;27;45380;-80
2024/01/08 01:29:09;;;;;;;;;26.00;20.00;;;;;1.21;57.21;101858.28;4994928;28;60322;-83
2024/01/08 01:31:35;;;;;;;;;22.75;21.50;;;;;1.30;56.87;101874.06;4975711;28;45645;-82
2024/01/08 01:34:01;;;;;;;;;24.00;16.75;;;;;1.38;56.85;101881.91;4975490;28;46158;-81
2024/01/08 01:36:26;;;;;;;;;21.50;17.50;;;;;1.34;56.95;101869.69;4975401;28;45350;-82
2024/01/08 01:38:51;;;;;;;;;28.50;20.75;;;;;1.30;57.01;101866.19;4975882;28;45284;-80
2024/01/08 01:41:17;;;;;;;;;27.75;23.75;;;;;1.32;57.01;101871.44;4978803;28;45486;-81
2024/01/08 01:43:42;;;;;;;;;23.50;23.25;;;;;1.28;57.01;101869.66;4981284;28;45331;-81
2024/01/08 01:46:36;;;;;;;;;17.25;17.25;;;;;1.44;56.74;101892.44;4978027;28;48368;-82
2024/01/08 01:49:03;;;;;;;;;20.75;19.50;;;;;1.32;56.81;101863.56;4976882;28;45308;-79
2024/01/08 01:51:28;;;;;;;;;22.00;20.50;;;;;1.51;56.23;101893.28;4976752;28;45318;-81
2024/01/08 01:53:55;;;;;;;;;15.00;15.00;;;;;1.41;55.64;101887.16;4976744;28;45485;-81
2024/01/08 01:56:20;;;;;;;;;25.25;17.00;;;;;1.38;56.58;101897.63;4976900;28;45465;-79
2024/01/08 01:58:46;;;;;;;;;16.75;14.00;;;;;1.28;56.65;101890.63;4992612;28;45788;-81
2024/01/08 02:01:12;;;;;;;;;20.25;16.00;;;;;1.37;56.46;101891.53;4979285;28;45492;-81
2024/01/08 02:03:38;;;;;;;;;16.50;15.25;;;;;1.36;56.99;101894.13;4990253;28;46390;-79
2024/01/08 02:06:08;;;;;;;;;16.00;13.25;;;;;1.38;57.07;101892.41;4974943;28;45315;-83
2024/01/08 02:08:34;;;;;;;;;15.25;15.00;;;;;1.41;56.81;101893.25;4992177;28;45509;-82
2024/01/08 02:10:59;;;;;;;;;20.75;15.00;;;;;1.40;56.43;101893.25;4994821;28;45503;-81
2024/01/08 02:13:24;;;;;;;;;20.75;16.75;;;;;1.42;56.84;101902.00;4994991;27;45320;-81
2024/01/08 02:15:50;;;;;;;;;13.75;13.75;;;;;1.23;56.61;101887.13;4982360;27;68992;-80
2024/01/08 02:18:19;;;;;;;;;16.00;16.00;;;;;1.32;56.22;101906.38;4975119;28;45448;-82
2024/01/08 02:20:45;;;;;;;;;24.75;13.25;;;;;1.29;56.48;101900.22;4975011;27;45445;-81
2024/01/08 02:23:10;;;;;;;;;19.50;13.00;;;;;1.34;56.30;101916.84;4975082;28;45501;-80
2024/01/08 02:25:36;;;;;;;;;15.00;10.00;;;;;1.29;57.03;101913.31;4982372;28;45265;-81
2024/01/08 02:28:02;;;;;;;;;20.00;13.00;;;;;1.34;56.70;101903.75;4993558;28;45357;-79
2024/01/08 02:30:27;;;;;;;;;11.00;10.25;;;;;1.18;56.61;101888.00;4994879;27;45687;-80
2024/01/08 02:32:52;;;;;;;;;15.25;11.25;;;;;1.32;56.90;101908.13;4994406;28;45426;-81
2024/01/08 02:35:17;;;;;;;;;16.25;10.00;;;;;1.34;56.40;101902.00;4993012;28;52043;-82
2024/01/08 02:37:43;;;;;;;;;11.00;10.25;;;;;1.39;57.28;101902.00;4991915;27;45555;-82
2024/01/08 02:40:08;;;;;;;;;13.75;13.00;;;;;1.38;57.06;101905.50;4975070;28;45700;-81
2024/01/08 02:42:34;;;;;;;;;9.00;9.00;;;;;1.36;57.49;101907.25;4974566;28;46001;-81
2024/01/08 02:45:00;;;;;;;;;15.25;11.25;;;;;1.42;57.13;101894.13;4973747;28;66498;-81
2024/01/08 02:47:25;;;;;;;;;12.00;8.50;;;;;1.45;56.86;101902.03;4975274;28;45521;-81
2024/01/08 02:49:51;;;;;;;;;21.00;13.25;;;;;1.47;56.79;101908.16;4974414;28;45483;-81
2024/01/08 02:52:16;;;;;;;;;16.50;16.25;;;;;1.47;57.32;101898.53;4974467;28;49251;-81
2024/01/08 02:54:41;;;;;;;;;15.00;11.00;;;;;1.47;56.87;101897.66;4974802;28;45447;-81
2024/01/08 02:57:07;;;;;;;;;14.25;13.75;;;;;1.45;56.51;101895.03;4974906;28;45366;-82
2024/01/08 02:59:32;;;;;;;;;13.25;13.25;;;;;1.41;55.89;101897.63;4974766;28;45493;-79
2024/01/08 03:01:57;;;;;;;;;14.50;14.50;;;;;1.41;56.86;101888.03;4974014;28;65579;-81
2024/01/08 03:04:22;;;;;;;;;19.75;13.75;;;;;1.37;56.73;101895.88;4976739;28;45535;-81
2024/01/08 03:06:48;;;;;;;;;16.50;14.50;;;;;1.41;57.15;101902.88;4994143;28;45475;-81
2024/01/08 03:09:13;;;;;;;;;22.75;20.50;;;;;1.39;56.48;101913.38;4994209;28;45354;-81
2024/01/08 03:11:38;;;;;;;;;18.50;12.50;;;;;1.27;57.07;101915.06;4988337;28;45486;-80
2024/01/08 03:14:04;;;;;;;;;16.75;16.75;;;;;1.19;56.59;101901.97;4991797;28;45729;-79
2024/01/08 03:16:30;;;;;;;;;13.50;11.50;;;;;1.15;56.46;101916.78;4993102;28;45406;-82
2024/01/08 03:18:55;;;;;;;;;17.50;16.50;;;;;1.15;56.45;101911.53;4984758;28;45457;-80
2024/01/08 03:21:21;;;;;;;;;18.50;18.50;;;;;1.16;57.17;101908.03;4973651;28;63345;-81
2024/01/08 03:23:46;;;;;;;;;19.25;13.25;;;;;1.12;57.65;101903.66;4974243;28;45457;-81
2024/01/08 03:26:11;;;;;;;;;15.50;14.00;;;;;1.19;57.29;101912.44;4990664;28;45539;-80
2024/01/08 03:28:37;;;;;;;;;15.00;10.00;;;;;1.17;57.45;101933.41;4983283;28;50214;-81
2024/01/08 03:31:02;;;;;;;;;18.50;15.75;;;;;1.09;57.32;101908.91;4973896;28;45298;-81
2024/01/08 03:33:28;;;;;;;;;20.75;16.25;;;;;1.13;57.68;101923.75;4974461;28;45266;-81
2024/01/08 03:35:54;;;;;;;;;16.00;13.25;;;;;1.12;57.65;101906.28;4987139;28;45270;-81
2024/01/08 03:38:20;;;;;;;;;19.00;19.00;;;;;1.10;57.75;101908.03;4992684;28;45367;-79
2024/01/08 03:40:45;;;;;;;;;16.00;16.00;;;;;1.10;58.23;101908.03;4993947;27;45664;-82
2024/01/08 03:43:12;;;;;;;;;25.75;16.50;;;;;1.17;57.91;101925.53;4974946;28;45562;-82
2024/01/08 03:45:37;;;;;;;;;17.75;14.50;;;;;1.12;57.78;101906.28;4973917;28;45449;-81
2024/01/08 03:48:03;;;;;;;;;29.50;16.00;;;;;1.23;58.30;101913.31;4974393;28;45404;-81
2024/01/08 03:50:28;;;;;;;;;18.25;15.25;;;;;1.17;57.96;101912.44;4973959;28;46351;-82
2024/01/08 03:52:54;;;;;;;;;24.25;19.25;;;;;1.18;58.45;101911.56;4973811;28;45317;-81
2024/01/08 03:55:20;;;;;;;;;18.75;14.25;;;;;1.16;58.28;101910.66;4976798;28;60873;-81
2024/01/08 03:57:46;;;;;;;;;14.00;14.00;;;;;1.16;58.29;101915.03;4974288;28;45323;-83
2024/01/08 04:00:11;;;;;;;;;12.50;12.50;;;;;1.20;59.37;101908.94;4973722;28;45983;-81
2024/01/08 04:02:40;;;;;;;;;15.50;14.00;;;;;1.20;58.75;101914.19;4974204;28;45267;-81
2024/01/08 04:05:07;;;;;;;;;16.75;16.50;;;;;1.27;59.10;101922.94;4983390;28;45302;-81
2024/01/08 04:07:32;;;;;;;;;18.75;15.00;;;;;1.23;58.68;101921.19;4998703;28;45436;-81
2024/01/08 04:09:58;;;;;;;;;19.75;14.75;;;;;1.22;58.86;101911.56;5009931;28;47002;-81
2024/01/08 04:12:23;;;;;;;;;10.00;10.00;;;;;1.20;58.16;101923.81;4993136;28;55522;-81
2024/01/08 04:14:48;;;;;;;;;21.75;14.75;;;;;1.17;58.16;101933.41;4991185;28;45382;-81
2024/01/08 04:17:14;;;;;;;;;18.75;13.75;;;;;1.14;58.37;101930.75;4996559;28;45381;-81
2024/01/08 04:19:39;;;;;;;;;14.50;13.50;;;;;1.12;58.10;101922.00;5000709;28;45786;-80
2024/01/08 04:22:04;;;;;;;;;19.50;17.50;;;;;1.14;57.67;101927.25;4997937;28;45373;-79
2024/01/08 04:24:29;;;;;;;;;24.25;18.00;;;;;1.03;58.55;101929.81;4987901;28;45539;-81
2024/01/08 04:26:55;;;;;;;;;16.00;14.50;;;;;0.99;57.97;101935.94;4973888;28;45656;-79
2024/01/08 04:29:20;;;;;;;;;18.75;15.00;;;;;0.96;57.81;101935.03;4971614;28;65576;-81
2024/01/08 04:31:46;;;;;;;;;17.25;14.50;;;;;1.01;58.62;101944.66;4973427;28;45457;-80
2024/01/08 04:34:11;;;;;;;;;17.25;14.25;;;;;0.96;57.65;101925.44;4975437;28;45215;-80
2024/01/08 04:36:42;;;;;;;;;13.75;12.75;;;;;0.93;58.00;101933.28;5009820;27;45591;-81
2024/01/08 04:39:09;;;;;;;;;20.25;16.00;;;;;0.85;58.60;101916.66;4992627;28;45442;-80
2024/01/08 04:41:35;;;;;;;;;18.50;16.25;;;;;0.96;58.08;101940.28;4993010;28;45326;-81
2024/01/08 04:44:00;;;;;;;;;18.00;16.00;;;;;1.03;58.87;101942.03;4991304;28;45315;-80
2024/01/08 04:46:26;;;;;;;;;16.75;16.25;;;;;1.01;58.25;101944.66;4974294;28;45652;-81
2024/01/08 04:48:51;;;;;;;;;20.25;15.75;;;;;1.00;58.63;101958.63;4974717;27;45315;-81
2024/01/08 04:51:23;;;;;;;;;16.50;15.50;;;;;1.01;58.84;101928.94;4976076;28;45367;-82
2024/01/08 04:53:49;;;;;;;;;21.00;13.50;;;;;1.12;58.26;101940.34;4988209;28;45417;-81
2024/01/08 04:56:24;;;;;;;;;17.75;16.00;;;;;1.09;57.82;101953.44;4994728;28;45348;-81
2024/01/08 04:58:51;;;;;;;;;15.75;10.25;;;;;1.08;58.14;101941.22;4995653;27;45350;-80
2024/01/08 05:01:17;;;;;;;;;19.75;16.75;;;;;0.96;57.53;101922.81;4995853;27;45403;-83
2024/01/08 05:03:43;;;;;;;;;15.50;15.50;;;;;1.09;58.02;101947.34;5011114;27;45377;-81
2024/01/08 05:06:09;;;;;;;;;20.00;20.00;;;;;1.03;57.44;101935.06;4976762;28;45331;-82
2024/01/08 05:08:35;;;;;;;;;15.00;11.50;;;;;0.99;57.57;101930.69;4985329;28;45979;-82
2024/01/08 05:11:00;;;;;;;;;21.00;19.50;;;;;1.08;57.38;101930.75;4995755;27;45261;-81
2024/01/08 05:13:25;;;;;;;;;24.00;20.50;;;;;1.14;57.39;101936.00;4995301;27;49149;-81
2024/01/08 05:15:51;;;;;;;;;15.00;15.00;;;;;1.06;57.17;101942.97;4978882;27;45647;-81
2024/01/08 05:18:16;;;;;;;;;25.25;17.25;;;;;0.94;56.41;101931.56;4976648;28;46308;-78
2024/01/08 05:20:42;;;;;;;;;18.50;16.50;;;;;0.95;57.55;101939.41;4976345;28;45397;-81
2024/01/08 05:23:07;;;;;;;;;21.00;13.75;;;;;0.96;57.31;101919.34;4976463;28;45451;-82
2024/01/08 05:25:35;;;;;;;;;21.25;17.25;;;;;1.08;56.80;101946.47;4990711;28;45558;-81
2024/01/08 05:28:00;;;;;;;;;27.25;18.75;;;;;0.97;56.42;101940.28;4991270;28;45495;-83
2024/01/08 05:30:26;;;;;;;;;13.00;13.00;;;;;0.93;56.38;101956.88;4974923;28;61680;-81
2024/01/08 05:32:53;;;;;;;;;15.00;14.25;;;;;0.91;57.29;101953.34;4996054;28;45611;-81
2024/01/08 05:35:18;;;;;;;;;25.00;17.50;;;;;0.82;57.23;101935.84;4983775;27;45318;-83
2024/01/08 05:37:43;;;;;;;;;19.75;17.50;;;;;0.82;57.38;101943.72;4976266;28;46341;-79
2024/01/08 05:40:09;;;;;;;;;18.25;16.00;;;;;0.81;57.17;101948.94;4976723;28;45260;-81
2024/01/08 05:42:35;;;;;;;;;21.50;17.00;;;;;0.80;57.25;101944.56;4976821;28;45219;-80
2024/01/08 05:45:00;;;;;;;;;17.25;15.00;;;;;0.89;57.39;101960.31;4977429;28;45231;-83
2024/01/08 05:47:25;;;;;;;;;19.25;19.00;;;;;0.91;56.26;101962.94;4975965;28;46081;-81
2024/01/08 05:49:51;;;;;;;;;14.25;14.25;;;;;0.85;55.05;101945.47;4981252;28;45671;-82
2024/01/08 05:52:16;;;;;;;;;16.75;16.75;;;;;0.80;55.67;101957.66;4976775;28;45363;-80
2024/01/08 05:54:41;;;;;;;;;22.75;18.00;;;;;0.82;55.19;101948.06;4976342;28;45478;-81
2024/01/08 05:57:07;;;;;;;;;16.00;11.25;;;;;0.70;55.26;101934.91;4976451;28;45418;-82
2024/01/08 05:59:33;;;;;;;;;20.25;15.25;;;;;0.65;54.79;101923.50;4976282;28;45511;-83
2024/01/08 06:01:59;;;;;;;;;22.00;17.25;;;;;0.74;54.92;101939.28;4980990;28;45463;-81
2024/01/08 06:04:24;;;;;;;;;20.50;16.00;;;;;0.84;55.03;101962.03;4987949;27;45547;-82
2024/01/08 06:06:51;;;;;;;;;16.50;12.75;;;;;0.87;54.46;101951.56;4995885;28;45369;-84
2024/01/08 06:09:16;;;;;;;;;16.75;16.00;;;;;0.79;54.56;101945.44;4995002;28;45266;-82
2024/01/08 06:11:42;;;;;;;;;17.00;13.00;;;;;0.78;54.69;101962.00;5011300;27;45177;-81
2024/01/08 06:14:07;;;;;;;;;21.25;13.75;;;;;0.75;55.20;101962.84;4988021;28;45219;-81
2024/01/08 06:16:35;;;;;;;;;18.75;14.75;;;;;0.79;55.64;101959.41;4975630;27;45291;-83
2024/01/08 06:19:01;;;;;;;;;19.50;17.75;;;;;0.81;56.38;101956.78;4976299;28;45268;-81
2024/01/08 06:21:27;;;;;;;;;20.75;13.00;;;;;0.88;56.07;101969.91;4976023;28;45496;-83
2024/01/08 06:23:52;;;;;;;;;22.50;19.50;;;;;0.95;56.72;101964.72;4975416;28;46672;-82
2024/01/08 06:26:18;;;;;;;;;5.50;4.00;;;;;0.76;56.65;101940.16;4980888;27;46068;-84
2024/01/08 06:28:43;;;;;;;;;16.00;16.00;;;;;0.91;56.11;101971.66;5001109;27;45403;-83
2024/01/08 06:31:08;;;;;;;;;19.00;14.25;;;;;0.97;56.61;101969.09;4994780;28;45380;-81
2024/01/08 06:33:34;;;;;;;;;20.75;20.75;;;;;0.89;56.39;101961.19;4994814;28;45377;-82
2024/01/08 06:35:59;;;;;;;;;17.25;16.00;;;;;1.00;55.95;101979.59;4994390;27;46391;-82
2024/01/08 06:38:25;;;;;;;;;30.25;20.25;;;;;0.81;55.59;101959.41;4986147;28;45337;-82
2024/01/08 06:40:50;;;;;;;;;16.50;15.50;;;;;0.76;55.66;101972.47;4989861;27;53736;-81
2024/01/08 06:43:15;;;;;;;;;18.00;16.00;;;;;0.77;55.30;101961.13;4975762;28;49649;-83
2024/01/08 06:45:41;;;;;;;;;20.75;17.25;;;;;0.72;55.44;101961.97;5002504;28;45391;-81
2024/01/08 06:48:06;;;;;;;;;18.50;18.50;;;;;0.78;55.61;101965.53;5001396;28;45407;-81
2024/01/08 06:50:32;;;;;;;;;12.00;12.00;;;;;0.78;55.83;101977.69;4994778;28;45230;-82
2024/01/08 06:52:57;;;;;;;;;24.75;15.75;;;;;0.79;55.57;101974.25;4988138;28;45622;-82
2024/01/08 06:55:22;;;;;;;;;17.75;16.00;;;;;0.64;55.26;101958.41;4981625;28;46062;-82
2024/01/08 06:57:49;;;;;;;;;23.00;18.25;;;;;0.75;56.23;101969.84;4979078;28;45875;-82
2024/01/08 07:00:15;;;;;;;;;25.50;22.25;;;;;0.72;55.68;101975.06;4994296;27;45924;-80
2024/01/08 07:02:41;;;;;;;;;21.50;16.25;;;;;0.73;55.84;101963.72;4991032;27;45578;-82
2024/01/08 07:05:07;;;;;;;;;20.50;19.50;;;;;0.80;55.57;101976.00;4981221;28;46223;-81
2024/01/08 07:07:32;;;;;;;;;26.00;20.50;;;;;0.66;55.74;101951.47;4994187;28;45497;-81
2024/01/08 07:09:57;;;;;;;;;20.25;20.25;;;;;0.70;55.94;101982.03;4993018;28;48296;-82
2024/01/08 07:12:22;;;;;;;;;29.75;23.50;;;;;0.60;56.16;101973.22;4984626;28;45398;-81
2024/01/08 07:14:48;;;;;;;;;26.25;23.50;;;;;0.64;56.18;101980.22;4979127;28;45447;-80
2024/01/08 07:17:13;;;;;;;;;20.50;19.50;;;;;0.50;56.37;101951.34;4993525;27;45413;-81
2024/01/08 07:19:39;;;;;;;;;21.75;16.25;;;;;0.70;57.07;101974.19;5000262;27;45293;-81
2024/01/08 07:22:04;;;;;;;;;20.00;19.25;;;;;0.66;57.00;101967.19;5007453;27;45394;-79
2024/01/08 07:24:30;;;;;;;;;22.50;20.50;;;;;0.62;56.42;101971.50;5010361;28;46754;-82
2024/01/08 07:26:57;;;;;;;;;31.50;27.50;;;;;0.58;56.57;101952.28;4994721;28;45501;-81
2024/01/08 07:29:22;;;;;;;;;20.25;16.75;;;;;0.46;56.62;101930.38;4994480;28;45400;-80
2024/01/08 07:31:48;;;;;;;;;21.50;18.50;;;;;0.66;56.86;101961.94;4995030;28;45548;-84
2024/01/08 07:34:13;;;;;;;;;23.00;19.00;;;;;0.51;57.37;101942.63;4994963;28;45227;-85
2024/01/08 07:36:39;;;;;;;;;26.75;21.50;;;;;0.67;56.58;101964.56;4993738;27;45323;-83
2024/01/08 07:39:04;;;;;;;;;26.75;25.50;;;;;0.65;57.31;101970.63;5003269;28;45397;-82
2024/01/08 07:41:29;;;;;;;;;20.50;16.00;;;;;0.50;57.18;101956.59;5013855;28;45434;-80
2024/01/08 07:43:55;;;;;;;;;24.25;19.50;;;;;0.49;56.81;101964.44;5013665;27;46267;-82
2024/01/08 07:46:20;;;;;;;;;25.50;22.25;;;;;0.62;57.08;101978.47;5003142;27;45594;-81
2024/01/08 07:48:45;;;;;;;;;16.25;13.75;;;;;0.61;57.33;101976.72;5008764;27;45346;-84
2024/01/08 07:51:11;;;;;;;;;26.75;20.75;;;;;0.62;56.88;101970.63;4993897;28;45309;-82
2024/01/08 07:53:36;;;;;;;;;22.00;20.25;;;;;0.64;57.10;101981.97;5008974;27;47087;-82
2024/01/08 07:56:02;;;;;;;;;24.25;20.25;;;;;0.42;57.14;101944.31;4991557;27;45444;-85
2024/01/08 07:58:28;;;;;;;;;30.50;21.25;;;;;0.69;56.82;101983.78;4993837;28;45535;-84
2024/01/08 08:00:54;;;;;;;;;19.00;16.25;;;;;0.65;57.03;101965.41;4994496;27;45564;-83
2024/01/08 08:03:19;;;;;;;;;21.75;19.25;;;;;0.68;57.15;101982.03;4988511;28;46283;-84
2024/01/08 08:05:45;;;;;;;;;29.00;22.00;;;;;0.66;57.08;101988.13;4979642;28;45341;-84
2024/01/08 08:08:11;;;;;;;;;18.25;16.75;;;;;0.58;56.86;101965.38;4981772;27;45481;-83
2024/01/08 08:10:36;;;;;;;;;22.75;22.75;;;;;0.52;56.99;101960.13;4993637;28;45565;-82
2024/01/08 08:13:02;;;;;;;;;17.00;15.50;;;;;0.73;57.22;101992.53;5010196;27;45462;-83
2024/01/08 08:15:27;;;;;;;;;22.00;17.50;;;;;0.27;57.05;101916.31;5053348;27;45352;-82
2024/01/08 08:17:52;;;;;;;;;22.00;19.25;;;;;0.71;57.01;101991.63;5064081;27;45366;-82
2024/01/08 08:20:18;;;;;;;;;23.25;20.25;;;;;0.75;57.13;101980.31;5039266;27;45364;-82
2024/01/08 08:22:43;;;;;;;;;29.00;24.50;;;;;0.62;57.00;101970.63;4973801;28;45273;-81
2024/01/08 08:25:09;;;;;;;;;20.50;20.50;;;;;0.68;57.18;101987.25;4976195;28;45215;-81
2024/01/08 08:27:35;;;;;;;;;23.75;22.25;;;;;0.76;56.70;102000.38;4976581;28;45429;-81
2024/01/08 08:30:01;;;;;;;;;19.00;19.00;;;;;0.83;56.32;101986.47;4983080;28;45210;-79
2024/01/08 08:32:26;;;;;;;;;21.75;21.50;;;;;0.75;56.08;101988.16;5089626;27;47909;-82
2024/01/08 08:34:51;;;;;;;;;26.00;23.50;;;;;0.69;57.37;101988.13;5100086;27;45559;-81
2024/01/08 08:37:17;;;;;;;;;14.50;13.75;;;;;0.69;57.27;101980.28;5055002;27;45380;-80
2024/01/08 08:39:42;;;;;;;;;21.50;21.00;;;;;0.80;58.04;102003.06;4989455;28;45284;-83
2024/01/08 08:42:08;;;;;;;;;28.75;22.00;;;;;0.77;58.24;102004.75;4995264;27;57214;-83
2024/01/08 08:44:33;;;;;;;;;21.50;21.00;;;;;0.62;57.88;101976.72;4997648;28;45358;-82
2024/01/08 08:46:59;;;;;;;;;30.75;24.00;;;;;0.74;57.92;102008.25;4996876;28;45376;-82
2024/01/08 08:49:25;;;;;;;;;22.75;17.50;;;;;0.76;58.49;101998.66;4997569;28;45271;-82
2024/01/08 08:51:51;;;;;;;;;31.75;25.00;;;;;0.65;59.08;101996.81;4995825;27;46392;-83
2024/01/08 08:54:16;;;;;;;;;28.75;21.00;;;;;0.75;59.26;102002.13;4996253;28;45405;-80
2024/01/08 08:56:42;;;;;;;;;23.75;23.25;;;;;0.86;59.14;102007.44;4996608;28;45231;-82
2024/01/08 08:59:07;;;;;;;;;29.75;27.50;;;;;1.00;59.70;102010.16;4977651;28;45362;-81
2024/01/08 09:01:33;;;;;;;;;27.25;22.25;;;;;0.98;59.19;102011.88;4977027;28;45858;-81
2024/01/08 09:03:58;;;;;;;;;31.50;23.00;;;;;0.96;58.40;102019.75;4977040;28;45257;-78
2024/01/08 09:06:24;;;;;;;;;27.50;21.25;;;;;0.96;58.84;102014.50;4982862;28;45426;-83
2024/01/08 09:08:50;;;;;;;;;32.75;24.75;;;;;0.91;59.09;102026.66;4997103;28;45316;-81
2024/01/08 09:11:16;;;;;;;;;26.00;22.25;;;;;0.97;59.49;102024.13;4988658;27;46078;-83
2024/01/08 09:13:42;;;;;;;;;26.75;20.75;;;;;0.99;59.87;102019.75;4976644;28;45336;-80
2024/01/08 09:16:09;;;;;;;;;29.75;26.25;;;;;1.02;60.73;102018.88;4977187;28;45393;-83
2024/01/08 09:18:35;;;;;;;;;23.00;18.25;;;;;1.05;61.29;102025.03;4976828;28;45487;-81
2024/01/08 09:21:00;;;;;;;;;24.50;20.75;;;;;0.93;62.50;102030.22;4992825;27;46946;-80
2024/01/08 09:23:26;;;;;;;;;16.50;13.25;;;;;0.85;62.97;102037.13;4977138;28;45343;-83
2024/01/08 09:25:51;;;;;;;;;25.50;25.50;;;;;0.80;63.80;102033.63;4991110;28;50948;-83
2024/01/08 09:28:16;;;;;;;;;37.00;23.00;;;;;0.75;63.83;102028.31;4977088;28;49867;-79
2024/01/08 09:30:42;;;;;;;;;25.00;18.50;;;;;0.73;64.36;102037.03;4976367;28;45254;-80
2024/01/08 09:33:07;;;;;;;;;21.75;18.50;;;;;0.73;63.91;102031.78;4977308;28;45345;-80
2024/01/08 09:35:32;;;;;;;;;28.75;22.50;;;;;0.73;65.05;102042.28;4976056;28;51175;-81
2024/01/08 09:37:57;;;;;;;;;26.25;22.75;;;;;0.59;65.52;102024.72;4976773;28;45240;-79
2024/01/08 09:40:23;;;;;;;;;31.25;21.75;;;;;0.71;65.73;102041.38;4983707;28;45390;-80
2024/01/08 09:42:53;;;;;;;;;27.25;20.50;;;;;0.66;66.14;102045.72;4995759;28;60838;-79
2024/01/08 09:45:23;;;;;;;;;36.50;24.50;;;;;0.72;66.34;102051.00;4990644;28;45551;-79
2024/01/08 09:47:49;;;;;;;;;27.00;22.00;;;;;0.76;66.65;102047.53;4995724;28;45520;-81
2024/01/08 09:50:16;;;;;;;;;30.75;26.75;;;;;0.67;66.15;102048.34;5008919;27;45347;-80
2024/01/08 09:52:43;;;;;;;;;26.75;22.50;;;;;0.56;66.88;102029.94;5002324;28;45322;-79
2024/01/08 09:55:10;;;;;;;;;28.50;20.00;;;;;0.71;67.54;102054.47;4995348;27;45505;-80
2024/01/08 09:57:35;;;;;;;;;28.00;20.25;;;;;0.67;68.55;102037.00;4988590;28;45516;-80
2024/01/08 10:00:01;;;;;;;;;29.00;27.25;;;;;0.75;67.37;102051.00;4976371;28;45457;-84
2024/01/08 10:02:26;;;;;;;;;28.50;24.50;;;;;0.72;68.55;102056.22;4977415;28;45415;-79
2024/01/08 10:04:52;;;;;;;;;32.50;25.75;;;;;0.62;68.59;102070.09;4990533;28;45391;-84
2024/01/08 10:07:17;;;;;;;;;38.75;30.25;;;;;0.63;68.89;102066.63;4995673;27;45216;-80
2024/01/08 10:09:43;;;;;;;;;33.50;24.50;;;;;0.67;68.97;102068.41;4995280;28;53320;-83
2024/01/08 10:12:10;;;;;;;;;28.50;23.00;;;;;0.73;68.76;102057.97;4996170;28;45325;-83
2024/01/08 10:14:35;;;;;;;;;30.00;26.25;;;;;0.72;69.39;102056.22;4996926;27;45429;-82
2024/01/08 10:17:01;;;;;;;;;31.50;24.25;;;;;0.59;70.14;102034.31;4998288;28;45498;-79
2024/01/08 10:19:27;;;;;;;;;35.25;29.00;;;;;0.75;69.49;102051.88;4990119;28;45418;-80
2024/01/08 10:22:07;;;;;;;;;46.00;27.50;;;;;0.78;69.13;102062.41;4982268;27;45435;-82
2024/01/08 10:24:32;;;;;;;;;33.00;29.25;;;;;0.75;69.24;102053.63;4997323;27;45341;-81
2024/01/08 10:26:58;;;;;;;;;30.25;27.00;;;;;0.80;69.42;102057.19;5011325;27;45319;-80
2024/01/08 10:29:24;;;;;;;;;25.25;23.75;;;;;0.82;70.12;102052.81;5015833;28;46132;-83
2024/01/08 10:31:49;;;;;;;;;32.00;22.75;;;;;0.80;69.69;102049.31;4999685;28;45322;-82
2024/01/08 10:34:16;;;;;;;;;33.50;26.25;;;;;0.76;71.05;102053.63;4996637;28;45314;-84
2024/01/08 10:36:43;;;;;;;;;30.50;27.50;;;;;0.84;70.40;102056.31;4990998;27;45539;-83
2024/01/08 10:39:09;;;;;;;;;26.75;21.75;;;;;0.91;70.55;102046.75;4976916;28;45483;-79
2024/01/08 10:41:35;;;;;;;;;29.00;24.75;;;;;0.74;70.61;102023.06;4991411;28;45447;-81
2024/01/08 10:44:01;;;;;;;;;43.75;34.00;;;;;0.72;71.14;102022.19;4995779;27;45310;-81
2024/01/08 10:46:32;;;;;;;;;44.75;27.00;;;;;0.79;70.28;102042.34;4995747;27;45659;-79
2024/01/08 10:49:01;;;;;;;;;28.00;16.75;;;;;0.72;69.88;102022.19;5015172;27;46390;-82
2024/01/08 10:51:27;;;;;;;;;31.00;26.75;;;;;0.75;70.35;102025.69;5016090;27;45242;-82
2024/01/08 10:53:54;;;;;;;;;30.75;23.25;;;;;0.89;69.04;102034.53;4990593;28;45296;-82
2024/01/08 10:56:24;;;;;;;;;27.50;25.75;;;;;0.87;70.46;102022.28;4992648;27;45552;-81
2024/01/08 10:59:09;;;;;;;;;28.50;24.00;;;;;0.93;69.03;102021.47;4992350;28;46206;-79
2024/01/08 11:01:36;;;;;;;;;36.50;27.50;;;;;1.02;69.73;102021.50;4994155;28;45325;-80
2024/01/08 11:04:05;;;;;;;;;27.75;22.50;;;;;1.07;69.70;102014.56;4995117;27;45371;-81
2024/01/08 11:06:35;;;;;;;;;33.75;27.75;;;;;1.20;69.91;102019.00;4995221;27;45443;-79
2024/01/08 11:09:01;;;;;;;;;28.25;22.75;;;;;1.31;68.12;102011.22;4994683;28;45368;-81
2024/01/08 11:11:27;;;;;;;;;39.75;32.25;;;;;1.31;68.35;102012.09;4994124;28;45345;-81